X  Blizu METAR Podaci o vazduhoplovstvu     ESNL Lycksele
Temperatura
2°C Temperatura
-8°C Tačka Rose
48% Vlaga



Vetar
6 M/S
13 MPH
21 KM/H
11 KTS



290°
ZSZ
Trenutna situacija

Delimično oblačno Delimično oblačno
Vazdušni pritisak 1015.92 (hPa) - 30 (inHg)
Vidljivost 6.2 (Milje) - 10 (km)
Aerodrom
Aerodromski kod. ESNL

Lokacija: Lycksele
Udaljenost: 35 (km)

Metar:
ESNL 101050Z AUTO 29011KT 9999 FEW028/// 02/M08 Q1016

Vreme: 2020-04-10 12:50 CEST